Terminal Aerodrome Forecast
Issued by NWS

Home | Current Version | Previous Version | Text Only | Print | Product List | Glossary On
Versions: 1 2 3 4 5 6 7 8 9 10 11 12 13 14 15 16 17 18 19 20 21 22 23 24 25 26 27 28
000
FTPA31 PHFO 050000 AAA
TAFLNY
TAF AMD
PHNY 050043Z 0501/0524 04012KT P6SM SCT030 BKN050
     FM050600 04009KT P6SM FEW030 SCT050
     FM052100 04015KT P6SM VCSH SCT030 BKN050
      AMD NOT SKED=

USA.gov is the U.S. government's official web portal to all federal, state and local government web resources and services.